Kezdőlap
METAR-TAF:

METAR-TAF

Repülőterek :

Jendouba, Tunézia

földrajzi szélesség: 36-29N, földrajzi hosszúság: 008-48E, magasság: 143 m

Jelenlegi meteorológiai megfigyelések

A jelentés 1 órával és 23 perccel ezelõtt készült, 05:00 UTC
Különbözõ irányokból fújó szél 1 kt
Hőmérséklet 14°C
Páratartalom 88%
Légköri nyomás 1018 hPa

METAR: DTTN 230500Z AUTO VRB01KT NCD 14/12 Q1018

Idő: 07:23 (06:23 UTC)


TAF: hiányzik

Meteorológiai megfigyelések és előrejelzések több, mint 4000 repülőtéren (METAR és TAF jelentéseket).

A térképen piros és sárga pontok jelzik az elérhető meteorológiai állomásokat.

Mozgassa az egeret a pont fölött, hogy megjelenjen az állomás neve.

Azután kattintson az időjárási megfigyelések és előrejelzések megtekintéséhez.

A térkép megváltoztatása: kattintson a fekete keresztel jelölt zöld gombra ráközelítéshez, a vonallal jelölt zöld gombra távolításhoz, vagy a zöld nyilakra a szomszédos térképek eléréséhez.


METAR-TAF: